Nissos Serifos — SVBJ4 — position and weather

sailwx.info

Track history (hours):
 
Tides and Currents Weather Stations Pressure Air Temp Water Temp Dewpoint Dewpoint Depression Visibility Wind Speed Wind Dir Waves Ship Positions

Nissos Serifos

Last reported at 2017-Nov-16 08:59 UTC. Time now 2017-Dec-12 19:58 UTC.
Position N 43°22' E 004°56'.
Warning: this ship's position is 26 days out of date.

Length 249 m; draft 8 m.

Type: Tanker. MMSI: 241136000.

Date/timePositionNaut miles runAvg speedWind from/ knotsBaromVisibWave heightAir tempDewpointWater temp
2017-Nov-16 08:59N 43°22' E 004°56'0 0.0
2017-Nov-16 08:29N 43°22' E 004°56'0 0.0
2017-Nov-16 07:59N 43°22' E 004°56'0 0.0
2017-Nov-16 07:29N 43°22' E 004°56'0 0.1
2017-Nov-16 06:56N 43°22' E 004°56'0 0.1
2017-Nov-16 06:29N 43°22' E 004°56'0 0.1
2017-Nov-16 05:50N 43°22' E 004°56'0 0.1
2017-Nov-16 05:26N 43°22' E 004°56'0 0.0
2017-Nov-16 04:59N 43°22' E 004°56'0 0.1
2017-Nov-16 04:29N 43°22' E 004°56'0 0.1
2017-Nov-16 03:59N 43°22' E 004°56'0 0.0
2017-Nov-16 03:29N 43°22' E 004°56'0 0.0
2017-Nov-16 02:59N 43°22' E 004°56'0 0.0
2017-Nov-16 02:29N 43°22' E 004°56'0 0.0
2017-Nov-16 01:59N 43°22' E 004°56'0 0.0
2017-Nov-16 01:29N 43°22' E 004°56'0 0.1
2017-Nov-16 00:47N 43°22' E 004°56'0 0.0
2017-Nov-16 00:29N 43°22' E 004°56'0 0.0
2017-Nov-15 23:59N 43°22' E 004°56'0 0.1
2017-Nov-15 23:29N 43°22' E 004°56'0 0.0
2017-Nov-15 22:59N 43°22' E 004°56'0 0.0
2017-Nov-15 22:29N 43°22' E 004°56'0 0.0
2017-Nov-15 21:59N 43°22' E 004°56'0 0.1
2017-Nov-15 21:29N 43°22' E 004°56'0 0.4
2017-Nov-15 20:56N 43°22' E 004°56'2 3.5
2017-Nov-15 20:30N 43°24' E 004°55'1 0.0
2017-Nov-14 13:35N 43°23' E 004°56'1 8.2
2017-Nov-14 13:30N 43°23' E 004°57'3 6.9
2017-Nov-14 13:01N 43°20' E 004°59'10 8.3
2017-Nov-14 11:50N 43°10' E 005°02'317 6.7
2017-Nov-12 12:41N 38°37' E 008°33'211.3
2017-Nov-12 12:30N 38°36' E 008°35'27912.1
2017-Nov-11 13:29N 36°37' E 013°53'612.4
2017-Nov-11 12:59N 36°35' E 014°01'612.5
2017-Nov-11 12:30N 36°34' E 014°08'612.3
2017-Nov-11 11:59N 36°32' E 014°16'612.3
2017-Nov-11 11:30N 36°30' E 014°23'612.4
2017-Nov-11 11:00N 36°28' E 014°30'612.2
2017-Nov-11 10:30N 36°26' E 014°37'612.8
2017-Nov-11 10:00N 36°26' E 014°45'  
Track history (hours):
 
Tides and Currents Weather Stations Pressure Air Temp Water Temp Dewpoint Dewpoint Depression Visibility Wind Speed Wind Dir Waves Ship Positions

Nissos Serifos

Last reported at 2017-Nov-16 08:59 UTC. Time now 2017-Dec-12 19:58 UTC.
Position N 43°22' E 004°56'.
Warning: this ship's position is 26 days out of date.

Length 249 m; draft 8 m.

Type: Tanker. MMSI: 241136000.

Date/timePositionNaut miles runAvg speedWind from/ knotsBaromVisibWave heightAir tempDewpointWater temp
2017-Nov-16 08:59N 43°22' E 004°56'0 0.0
2017-Nov-16 08:29N 43°22' E 004°56'0 0.0
2017-Nov-16 07:59N 43°22' E 004°56'0 0.0
2017-Nov-16 07:29N 43°22' E 004°56'0 0.1
2017-Nov-16 06:56N 43°22' E 004°56'0 0.1
2017-Nov-16 06:29N 43°22' E 004°56'0 0.1
2017-Nov-16 05:50N 43°22' E 004°56'0 0.1
2017-Nov-16 05:26N 43°22' E 004°56'0 0.0
2017-Nov-16 04:59N 43°22' E 004°56'0 0.1
2017-Nov-16 04:29N 43°22' E 004°56'0 0.1
2017-Nov-16 03:59N 43°22' E 004°56'0 0.0
2017-Nov-16 03:29N 43°22' E 004°56'0 0.0
2017-Nov-16 02:59N 43°22' E 004°56'0 0.0
2017-Nov-16 02:29N 43°22' E 004°56'0 0.0
2017-Nov-16 01:59N 43°22' E 004°56'0 0.0
2017-Nov-16 01:29N 43°22' E 004°56'0 0.1
2017-Nov-16 00:47N 43°22' E 004°56'0 0.0
2017-Nov-16 00:29N 43°22' E 004°56'0 0.0
2017-Nov-15 23:59N 43°22' E 004°56'0 0.1
2017-Nov-15 23:29N 43°22' E 004°56'0 0.0
2017-Nov-15 22:59N 43°22' E 004°56'0 0.0
2017-Nov-15 22:29N 43°22' E 004°56'0 0.0
2017-Nov-15 21:59N 43°22' E 004°56'0 0.1
2017-Nov-15 21:29N 43°22' E 004°56'0 0.4
2017-Nov-15 20:56N 43°22' E 004°56'2 3.5
2017-Nov-15 20:30N 43°24' E 004°55'1 0.0
2017-Nov-14 13:35N 43°23' E 004°56'1 8.2
2017-Nov-14 13:30N 43°23' E 004°57'3 6.9
2017-Nov-14 13:01N 43°20' E 004°59'10 8.3
2017-Nov-14 11:50N 43°10' E 005°02'317 6.7
2017-Nov-12 12:41N 38°37' E 008°33'211.3
2017-Nov-12 12:30N 38°36' E 008°35'27912.1
2017-Nov-11 13:29N 36°37' E 013°53'612.4
2017-Nov-11 12:59N 36°35' E 014°01'612.5
2017-Nov-11 12:30N 36°34' E 014°08'612.3
2017-Nov-11 11:59N 36°32' E 014°16'612.3
2017-Nov-11 11:30N 36°30' E 014°23'612.4
2017-Nov-11 11:00N 36°28' E 014°30'612.2
2017-Nov-11 10:30N 36°26' E 014°37'612.8
2017-Nov-11 10:00N 36°26' E 014°45'  

Dump ship's entire track history